sensor_id;sensor_type;location;lat;lon;timestamp;temperature;humidity
7694;DHT22;3889;48.162;11.510;2022-09-12T00:01:03;11.80;99.90
7694;DHT22;3889;48.162;11.510;2022-09-12T00:03:32;11.70;99.90
7694;DHT22;3889;48.162;11.510;2022-09-12T00:05:59;11.70;99.90
7694;DHT22;3889;48.162;11.510;2022-09-12T00:08:27;11.80;99.90
7694;DHT22;3889;48.162;11.510;2022-09-12T00:10:55;11.80;99.90
7694;DHT22;3889;48.162;11.510;2022-09-12T00:13:23;11.80;99.90
7694;DHT22;3889;48.162;11.510;2022-09-12T00:15:50;11.80;99.90
7694;DHT22;3889;48.162;11.510;2022-09-12T00:18:20;11.70;99.90
7694;DHT22;3889;48.162;11.510;2022-09-12T00:20:47;11.80;99.90
7694;DHT22;3889;48.162;11.510;2022-09-12T00:23:15;11.80;99.90
7694;DHT22;3889;48.162;11.510;2022-09-12T00:25:44;11.70;99.90
7694;DHT22;3889;48.162;11.510;2022-09-12T00:28:13;11.70;99.90
7694;DHT22;3889;48.162;11.510;2022-09-12T00:30:42;11.80;99.90
7694;DHT22;3889;48.162;11.510;2022-09-12T00:33:11;11.70;99.90
7694;DHT22;3889;48.162;11.510;2022-09-12T00:35:44;11.80;99.90
7694;DHT22;3889;48.162;11.510;2022-09-12T00:38:13;11.70;99.90
7694;DHT22;3889;48.162;11.510;2022-09-12T00:40:41;11.60;99.90
7694;DHT22;3889;48.162;11.510;2022-09-12T00:43:13;11.60;99.90
7694;DHT22;3889;48.162;11.510;2022-09-12T00:45:41;11.60;99.90
7694;DHT22;3889;48.162;11.510;2022-09-12T00:48:17;11.60;99.90
7694;DHT22;3889;48.162;11.510;2022-09-12T00:50:49;11.50;99.90
7694;DHT22;3889;48.162;11.510;2022-09-12T00:53:17;11.50;99.90
7694;DHT22;3889;48.162;11.510;2022-09-12T00:55:46;11.50;99.90
7694;DHT22;3889;48.162;11.510;2022-09-12T00:58:18;11.60;99.90
7694;DHT22;3889;48.162;11.510;2022-09-12T01:00:47;11.50;99.90
7694;DHT22;3889;48.162;11.510;2022-09-12T01:03:18;11.50;99.90
7694;DHT22;3889;48.162;11.510;2022-09-12T01:05:52;11.50;99.90
7694;DHT22;3889;48.162;11.510;2022-09-12T01:08:24;11.50;99.90
7694;DHT22;3889;48.162;11.510;2022-09-12T01:10:52;11.50;99.90
7694;DHT22;3889;48.162;11.510;2022-09-12T01:13:21;11.50;99.90
7694;DHT22;3889;48.162;11.510;2022-09-12T01:15:50;11.50;99.90
7694;DHT22;3889;48.162;11.510;2022-09-12T01:18:24;11.40;99.90
7694;DHT22;3889;48.162;11.510;2022-09-12T01:21:06;11.40;99.90
7694;DHT22;3889;48.162;11.510;2022-09-12T01:33:05;11.40;99.90
7694;DHT22;3889;48.162;11.510;2022-09-12T01:35:43;11.40;99.90
7694;DHT22;3889;48.162;11.510;2022-09-12T01:38:21;11.40;99.90
7694;DHT22;3889;48.162;11.510;2022-09-12T01:40:57;11.30;99.90
7694;DHT22;3889;48.162;11.510;2022-09-12T01:43:32;11.30;99.90
7694;DHT22;3889;48.162;11.510;2022-09-12T01:46:06;11.30;99.90
7694;DHT22;3889;48.162;11.510;2022-09-12T01:48:42;11.20;99.90
7694;DHT22;3889;48.162;11.510;2022-09-12T01:51:17;11.30;99.90
7694;DHT22;3889;48.162;11.510;2022-09-12T01:53:50;11.30;99.90
7694;DHT22;3889;48.162;11.510;2022-09-12T01:56:22;11.30;99.90
7694;DHT22;3889;48.162;11.510;2022-09-12T01:58:57;11.20;99.90
7694;DHT22;3889;48.162;11.510;2022-09-12T02:01:29;11.20;99.90
7694;DHT22;3889;48.162;11.510;2022-09-12T02:04:05;11.10;99.90
7694;DHT22;3889;48.162;11.510;2022-09-12T02:06:37;11.10;99.90
7694;DHT22;3889;48.162;11.510;2022-09-12T02:09:09;11.10;99.90
7694;DHT22;3889;48.162;11.510;2022-09-12T02:11:42;11.00;99.90
7694;DHT22;3889;48.162;11.510;2022-09-12T02:14:12;11.10;99.90
7694;DHT22;3889;48.162;11.510;2022-09-12T02:16:44;11.10;99.90
7694;DHT22;3889;48.162;11.510;2022-09-12T02:19:16;11.00;99.90
7694;DHT22;3889;48.162;11.510;2022-09-12T02:21:47;11.00;99.90
7694;DHT22;3889;48.162;11.510;2022-09-12T02:24:16;11.00;99.90
7694;DHT22;3889;48.162;11.510;2022-09-12T02:26:49;11.00;99.90
7694;DHT22;3889;48.162;11.510;2022-09-12T02:29:19;11.00;99.90
7694;DHT22;3889;48.162;11.510;2022-09-12T02:31:50;11.00;99.90
7694;DHT22;3889;48.162;11.510;2022-09-12T02:34:31;11.00;99.90
7694;DHT22;3889;48.162;11.510;2022-09-12T02:37:06;11.00;99.90
7694;DHT22;3889;48.162;11.510;2022-09-12T02:42:05;11.00;99.90
7694;DHT22;3889;48.162;11.510;2022-09-12T02:44:33;11.00;99.90
7694;DHT22;3889;48.162;11.510;2022-09-12T02:47:05;10.90;99.90
7694;DHT22;3889;48.162;11.510;2022-09-12T02:49:36;10.90;99.90
7694;DHT22;3889;48.162;11.510;2022-09-12T02:52:04;10.80;99.90
7694;DHT22;3889;48.162;11.510;2022-09-12T02:54:32;10.80;99.90
7694;DHT22;3889;48.162;11.510;2022-09-12T02:57:00;10.80;99.90
7694;DHT22;3889;48.162;11.510;2022-09-12T02:59:28;10.80;99.90
7694;DHT22;3889;48.162;11.510;2022-09-12T03:02:10;10.80;99.90
7694;DHT22;3889;48.162;11.510;2022-09-12T03:07:58;10.70;99.90
7694;DHT22;3889;48.162;11.510;2022-09-12T03:10:34;10.70;99.90
7694;DHT22;3889;48.162;11.510;2022-09-12T03:13:11;10.70;99.90
7694;DHT22;3889;48.162;11.510;2022-09-12T03:15:45;10.70;99.90
7694;DHT22;3889;48.162;11.510;2022-09-12T03:18:25;10.70;99.90
7694;DHT22;3889;48.162;11.510;2022-09-12T03:21:03;10.70;99.90
7694;DHT22;3889;48.162;11.510;2022-09-12T03:23:39;10.70;99.90
7694;DHT22;3889;48.162;11.510;2022-09-12T03:26:14;10.70;99.90
7694;DHT22;3889;48.162;11.510;2022-09-12T03:28:44;10.70;99.90
7694;DHT22;3889;48.162;11.510;2022-09-12T03:31:14;10.60;99.90
7694;DHT22;3889;48.162;11.510;2022-09-12T03:33:42;10.60;99.90
7694;DHT22;3889;48.162;11.510;2022-09-12T03:36:15;10.50;99.90
7694;DHT22;3889;48.162;11.510;2022-09-12T03:38:45;10.50;99.90
7694;DHT22;3889;48.162;11.510;2022-09-12T03:41:13;10.50;99.90
7694;DHT22;3889;48.162;11.510;2022-09-12T03:43:40;10.50;99.90
7694;DHT22;3889;48.162;11.510;2022-09-12T03:46:09;10.60;99.90
7694;DHT22;3889;48.162;11.510;2022-09-12T03:48:37;10.50;99.90
7694;DHT22;3889;48.162;11.510;2022-09-12T03:51:07;10.50;99.90
7694;DHT22;3889;48.162;11.510;2022-09-12T03:53:35;10.50;99.90
7694;DHT22;3889;48.162;11.510;2022-09-12T03:56:07;10.50;99.90
7694;DHT22;3889;48.162;11.510;2022-09-12T03:58:36;10.50;99.90
7694;DHT22;3889;48.162;11.510;2022-09-12T04:01:08;10.40;99.90
7694;DHT22;3889;48.162;11.510;2022-09-12T04:03:38;10.40;99.90
7694;DHT22;3889;48.162;11.510;2022-09-12T04:06:07;10.40;99.90
7694;DHT22;3889;48.162;11.510;2022-09-12T04:08:35;10.40;99.90
7694;DHT22;3889;48.162;11.510;2022-09-12T04:11:08;10.30;99.90
7694;DHT22;3889;48.162;11.510;2022-09-12T04:13:39;10.40;99.90
7694;DHT22;3889;48.162;11.510;2022-09-12T04:16:08;10.40;99.90
7694;DHT22;3889;48.162;11.510;2022-09-12T04:18:36;10.40;99.90
7694;DHT22;3889;48.162;11.510;2022-09-12T04:21:05;10.30;99.90
7694;DHT22;3889;48.162;11.510;2022-09-12T04:23:33;10.20;99.90
7694;DHT22;3889;48.162;11.510;2022-09-12T04:26:03;10.20;99.90
7694;DHT22;3889;48.162;11.510;2022-09-12T04:28:34;10.30;99.90
7694;DHT22;3889;48.162;11.510;2022-09-12T04:31:02;10.20;99.90
7694;DHT22;3889;48.162;11.510;2022-09-12T04:33:31;10.20;99.90
7694;DHT22;3889;48.162;11.510;2022-09-12T04:36:03;10.20;99.90
7694;DHT22;3889;48.162;11.510;2022-09-12T04:38:31;10.20;99.90
7694;DHT22;3889;48.162;11.510;2022-09-12T04:40:59;10.10;99.90
7694;DHT22;3889;48.162;11.510;2022-09-12T04:43:27;10.20;99.90
7694;DHT22;3889;48.162;11.510;2022-09-12T04:46:04;10.10;99.90
7694;DHT22;3889;48.162;11.510;2022-09-12T04:48:32;10.00;99.90
7694;DHT22;3889;48.162;11.510;2022-09-12T04:51:08;10.10;99.90
7694;DHT22;3889;48.162;11.510;2022-09-12T04:53:36;10.10;99.90
7694;DHT22;3889;48.162;11.510;2022-09-12T04:56:05;10.10;99.90
7694;DHT22;3889;48.162;11.510;2022-09-12T04:58:34;10.20;99.90
7694;DHT22;3889;48.162;11.510;2022-09-12T05:01:08;10.10;99.90
7694;DHT22;3889;48.162;11.510;2022-09-12T05:03:36;10.20;99.90
7694;DHT22;3889;48.162;11.510;2022-09-12T05:06:06;10.20;99.90
7694;DHT22;3889;48.162;11.510;2022-09-12T05:08:34;10.20;99.90
7694;DHT22;3889;48.162;11.510;2022-09-12T05:11:04;10.30;99.90
7694;DHT22;3889;48.162;11.510;2022-09-12T05:13:33;10.20;99.90
7694;DHT22;3889;48.162;11.510;2022-09-12T05:16:02;10.10;99.90
7694;DHT22;3889;48.162;11.510;2022-09-12T05:18:33;10.10;99.90
7694;DHT22;3889;48.162;11.510;2022-09-12T05:21:04;10.10;99.90
7694;DHT22;3889;48.162;11.510;2022-09-12T05:23:33;10.20;99.90
7694;DHT22;3889;48.162;11.510;2022-09-12T05:26:02;10.20;99.90
7694;DHT22;3889;48.162;11.510;2022-09-12T05:28:32;10.30;99.90
7694;DHT22;3889;48.162;11.510;2022-09-12T05:31:00;10.30;99.90
7694;DHT22;3889;48.162;11.510;2022-09-12T05:33:31;10.40;99.90
7694;DHT22;3889;48.162;11.510;2022-09-12T05:36:00;10.40;99.90
7694;DHT22;3889;48.162;11.510;2022-09-12T05:38:28;10.40;99.90
7694;DHT22;3889;48.162;11.510;2022-09-12T05:41:02;10.40;99.90
7694;DHT22;3889;48.162;11.510;2022-09-12T05:43:30;10.40;99.90
7694;DHT22;3889;48.162;11.510;2022-09-12T05:46:02;10.40;99.90
7694;DHT22;3889;48.162;11.510;2022-09-12T05:48:31;10.50;99.90
7694;DHT22;3889;48.162;11.510;2022-09-12T05:51:01;10.50;99.90
7694;DHT22;3889;48.162;11.510;2022-09-12T05:53:30;10.60;99.90
7694;DHT22;3889;48.162;11.510;2022-09-12T05:56:03;10.70;99.90
7694;DHT22;3889;48.162;11.510;2022-09-12T05:58:31;10.70;99.90
7694;DHT22;3889;48.162;11.510;2022-09-12T06:01:04;10.80;99.90
7694;DHT22;3889;48.162;11.510;2022-09-12T06:03:36;10.80;99.90
7694;DHT22;3889;48.162;11.510;2022-09-12T06:06:07;10.90;99.90
7694;DHT22;3889;48.162;11.510;2022-09-12T06:08:35;11.00;99.90
7694;DHT22;3889;48.162;11.510;2022-09-12T06:11:04;11.10;99.90
7694;DHT22;3889;48.162;11.510;2022-09-12T06:13:33;11.20;99.90
7694;DHT22;3889;48.162;11.510;2022-09-12T06:16:03;11.20;99.90
7694;DHT22;3889;48.162;11.510;2022-09-12T06:18:31;11.30;99.90
7694;DHT22;3889;48.162;11.510;2022-09-12T06:21:03;11.40;99.90
7694;DHT22;3889;48.162;11.510;2022-09-12T06:23:31;11.40;99.90
7694;DHT22;3889;48.162;11.510;2022-09-12T06:25:59;11.40;99.90
7694;DHT22;3889;48.162;11.510;2022-09-12T06:28:27;11.60;99.90
7694;DHT22;3889;48.162;11.510;2022-09-12T06:31:01;11.80;99.90
7694;DHT22;3889;48.162;11.510;2022-09-12T06:33:31;11.90;99.90
7694;DHT22;3889;48.162;11.510;2022-09-12T06:36:06;12.00;99.90
7694;DHT22;3889;48.162;11.510;2022-09-12T06:38:38;12.10;99.90
7694;DHT22;3889;48.162;11.510;2022-09-12T06:41:08;12.20;99.90
7694;DHT22;3889;48.162;11.510;2022-09-12T06:43:38;12.20;99.90
7694;DHT22;3889;48.162;11.510;2022-09-12T06:46:06;12.30;99.90
7694;DHT22;3889;48.162;11.510;2022-09-12T06:48:34;12.50;99.90
7694;DHT22;3889;48.162;11.510;2022-09-12T06:51:11;12.60;99.90
7694;DHT22;3889;48.162;11.510;2022-09-12T06:53:40;12.70;99.90
7694;DHT22;3889;48.162;11.510;2022-09-12T06:56:10;12.80;99.90
7694;DHT22;3889;48.162;11.510;2022-09-12T06:58:38;12.80;99.90
7694;DHT22;3889;48.162;11.510;2022-09-12T07:01:08;12.90;99.90
7694;DHT22;3889;48.162;11.510;2022-09-12T07:03:37;13.00;99.90
7694;DHT22;3889;48.162;11.510;2022-09-12T07:06:07;13.10;99.90
7694;DHT22;3889;48.162;11.510;2022-09-12T07:08:37;13.20;99.90
7694;DHT22;3889;48.162;11.510;2022-09-12T07:11:10;13.30;99.90
7694;DHT22;3889;48.162;11.510;2022-09-12T07:13:39;13.40;99.90
7694;DHT22;3889;48.162;11.510;2022-09-12T07:16:07;13.60;99.90
7694;DHT22;3889;48.162;11.510;2022-09-12T07:18:37;13.70;99.90
7694;DHT22;3889;48.162;11.510;2022-09-12T07:21:06;13.80;99.90
7694;DHT22;3889;48.162;11.510;2022-09-12T07:23:36;13.90;99.90
7694;DHT22;3889;48.162;11.510;2022-09-12T07:26:05;14.00;99.90
7694;DHT22;3889;48.162;11.510;2022-09-12T07:28:33;14.20;99.90
7694;DHT22;3889;48.162;11.510;2022-09-12T07:31:05;14.30;99.90
7694;DHT22;3889;48.162;11.510;2022-09-12T07:33:34;14.50;99.90
7694;DHT22;3889;48.162;11.510;2022-09-12T07:36:03;14.60;99.90
7694;DHT22;3889;48.162;11.510;2022-09-12T07:38:32;14.70;99.90
7694;DHT22;3889;48.162;11.510;2022-09-12T07:41:01;14.80;99.90
7694;DHT22;3889;48.162;11.510;2022-09-12T07:43:36;14.90;99.90
7694;DHT22;3889;48.162;11.510;2022-09-12T07:46:04;15.00;99.90
7694;DHT22;3889;48.162;11.510;2022-09-12T07:48:32;15.10;99.90
7694;DHT22;3889;48.162;11.510;2022-09-12T07:51:01;15.20;99.90
7694;DHT22;3889;48.162;11.510;2022-09-12T07:53:31;15.20;99.90
7694;DHT22;3889;48.162;11.510;2022-09-12T07:56:01;15.40;99.90
7694;DHT22;3889;48.162;11.510;2022-09-12T07:58:30;15.50;99.90
7694;DHT22;3889;48.162;11.510;2022-09-12T08:01:02;15.50;99.90
7694;DHT22;3889;48.162;11.510;2022-09-12T08:03:30;15.60;99.90
7694;DHT22;3889;48.162;11.510;2022-09-12T08:06:03;15.70;99.90
7694;DHT22;3889;48.162;11.510;2022-09-12T08:08:31;15.90;99.90
7694;DHT22;3889;48.162;11.510;2022-09-12T08:11:01;15.90;99.90
7694;DHT22;3889;48.162;11.510;2022-09-12T08:13:32;16.00;99.90
7694;DHT22;3889;48.162;11.510;2022-09-12T08:16:01;16.10;99.90
7694;DHT22;3889;48.162;11.510;2022-09-12T08:18:30;16.20;99.90
7694;DHT22;3889;48.162;11.510;2022-09-12T08:20:58;16.30;99.90
7694;DHT22;3889;48.162;11.510;2022-09-12T08:23:27;16.30;99.90
7694;DHT22;3889;48.162;11.510;2022-09-12T08:25:55;16.50;99.90
7694;DHT22;3889;48.162;11.510;2022-09-12T08:28:25;16.60;99.90
7694;DHT22;3889;48.162;11.510;2022-09-12T08:30:53;16.70;99.90
7694;DHT22;3889;48.162;11.510;2022-09-12T08:33:27;16.80;99.90
7694;DHT22;3889;48.162;11.510;2022-09-12T08:36:02;17.00;99.90
7694;DHT22;3889;48.162;11.510;2022-09-12T08:38:31;16.90;99.90
7694;DHT22;3889;48.162;11.510;2022-09-12T08:41:02;17.10;99.90
7694;DHT22;3889;48.162;11.510;2022-09-12T08:43:47;17.20;99.90
7694;DHT22;3889;48.162;11.510;2022-09-12T08:46:26;17.40;99.90
7694;DHT22;3889;48.162;11.510;2022-09-12T08:48:57;17.40;99.90
7694;DHT22;3889;48.162;11.510;2022-09-12T08:51:27;17.60;99.90
7694;DHT22;3889;48.162;11.510;2022-09-12T08:53:57;17.70;99.90
7694;DHT22;3889;48.162;11.510;2022-09-12T08:56:26;17.70;99.90
7694;DHT22;3889;48.162;11.510;2022-09-12T08:58:58;17.90;99.90
7694;DHT22;3889;48.162;11.510;2022-09-12T09:01:31;18.00;99.90
7694;DHT22;3889;48.162;11.510;2022-09-12T09:04:14;18.10;99.90
7694;DHT22;3889;48.162;11.510;2022-09-12T09:07:05;18.00;99.90
7694;DHT22;3889;48.162;11.510;2022-09-12T09:09:48;18.10;99.90
7694;DHT22;3889;48.162;11.510;2022-09-12T09:12:24;18.20;99.90
7694;DHT22;3889;48.162;11.510;2022-09-12T09:17:52;18.40;99.90
7694;DHT22;3889;48.162;11.510;2022-09-12T09:20:26;18.50;99.90
7694;DHT22;3889;48.162;11.510;2022-09-12T09:22:59;18.60;99.90
7694;DHT22;3889;48.162;11.510;2022-09-12T09:25:39;18.50;99.90
7694;DHT22;3889;48.162;11.510;2022-09-12T09:28:13;18.60;99.90
7694;DHT22;3889;48.162;11.510;2022-09-12T09:30:44;18.70;99.90
7694;DHT22;3889;48.162;11.510;2022-09-12T09:33:20;18.70;99.90
7694;DHT22;3889;48.162;11.510;2022-09-12T09:35:54;18.80;99.90
7694;DHT22;3889;48.162;11.510;2022-09-12T09:38:26;19.00;99.90
7694;DHT22;3889;48.162;11.510;2022-09-12T09:41:07;19.00;99.90
7694;DHT22;3889;48.162;11.510;2022-09-12T09:43:37;18.90;99.90
7694;DHT22;3889;48.162;11.510;2022-09-12T09:46:07;19.00;99.90
7694;DHT22;3889;48.162;11.510;2022-09-12T09:48:47;19.20;99.90
7694;DHT22;3889;48.162;11.510;2022-09-12T09:51:17;19.10;99.90
7694;DHT22;3889;48.162;11.510;2022-09-12T09:53:51;19.30;99.90
7694;DHT22;3889;48.162;11.510;2022-09-12T09:56:31;19.30;99.90
7694;DHT22;3889;48.162;11.510;2022-09-12T10:01:35;19.60;99.90
7694;DHT22;3889;48.162;11.510;2022-09-12T10:04:17;19.60;99.90
7694;DHT22;3889;48.162;11.510;2022-09-12T10:06:45;19.60;99.90
7694;DHT22;3889;48.162;11.510;2022-09-12T10:09:19;19.70;99.90
7694;DHT22;3889;48.162;11.510;2022-09-12T10:11:48;19.70;99.90
7694;DHT22;3889;48.162;11.510;2022-09-12T10:14:34;19.80;99.90
7694;DHT22;3889;48.162;11.510;2022-09-12T10:17:22;19.80;99.90
7694;DHT22;3889;48.162;11.510;2022-09-12T10:19:51;19.90;99.90
7694;DHT22;3889;48.162;11.510;2022-09-12T10:22:40;19.70;99.90
7694;DHT22;3889;48.162;11.510;2022-09-12T10:25:17;19.80;99.90
7694;DHT22;3889;48.162;11.510;2022-09-12T10:27:51;19.70;99.90
7694;DHT22;3889;48.162;11.510;2022-09-12T10:30:20;19.90;99.90
7694;DHT22;3889;48.162;11.510;2022-09-12T10:32:51;19.90;99.90
7694;DHT22;3889;48.162;11.510;2022-09-12T10:35:22;19.90;99.90
7694;DHT22;3889;48.162;11.510;2022-09-12T10:37:53;19.90;99.90
7694;DHT22;3889;48.162;11.510;2022-09-12T10:40:23;20.00;99.90
7694;DHT22;3889;48.162;11.510;2022-09-12T10:42:54;20.00;99.90
7694;DHT22;3889;48.162;11.510;2022-09-12T10:45:25;19.80;99.90
7694;DHT22;3889;48.162;11.510;2022-09-12T10:47:55;19.90;99.90
7694;DHT22;3889;48.162;11.510;2022-09-12T10:50:28;20.30;99.90
7694;DHT22;3889;48.162;11.510;2022-09-12T10:53:17;20.30;99.90
7694;DHT22;3889;48.162;11.510;2022-09-12T10:56:00;20.10;99.90
7694;DHT22;3889;48.162;11.510;2022-09-12T10:58:35;20.20;99.90
7694;DHT22;3889;48.162;11.510;2022-09-12T11:01:15;20.10;99.90
7694;DHT22;3889;48.162;11.510;2022-09-12T11:03:59;20.10;99.90
7694;DHT22;3889;48.162;11.510;2022-09-12T11:06:38;20.20;99.90
7694;DHT22;3889;48.162;11.510;2022-09-12T11:09:12;20.40;99.90
7694;DHT22;3889;48.162;11.510;2022-09-12T11:11:56;20.20;99.90
7694;DHT22;3889;48.162;11.510;2022-09-12T11:14:39;20.10;99.90
7694;DHT22;3889;48.162;11.510;2022-09-12T11:17:21;20.10;99.90
7694;DHT22;3889;48.162;11.510;2022-09-12T11:26:07;20.50;99.90
7694;DHT22;3889;48.162;11.510;2022-09-12T11:28:48;20.30;99.90
7694;DHT22;3889;48.162;11.510;2022-09-12T11:34:26;20.40;99.90
7694;DHT22;3889;48.162;11.510;2022-09-12T11:37:10;20.60;99.90
7694;DHT22;3889;48.162;11.510;2022-09-12T11:39:47;20.60;99.90
7694;DHT22;3889;48.162;11.510;2022-09-12T11:42:27;20.40;99.90
7694;DHT22;3889;48.162;11.510;2022-09-12T11:45:01;20.50;99.90
7694;DHT22;3889;48.162;11.510;2022-09-12T11:47:33;20.50;99.90
7694;DHT22;3889;48.162;11.510;2022-09-12T11:50:19;20.50;99.90
7694;DHT22;3889;48.162;11.510;2022-09-12T11:52:49;20.60;99.90
7694;DHT22;3889;48.162;11.510;2022-09-12T11:55:22;20.60;99.90
7694;DHT22;3889;48.162;11.510;2022-09-12T11:57:53;20.80;99.90
7694;DHT22;3889;48.162;11.510;2022-09-12T12:00:22;20.80;99.90
7694;DHT22;3889;48.162;11.510;2022-09-12T12:03:00;20.60;99.90
7694;DHT22;3889;48.162;11.510;2022-09-12T12:05:34;20.60;99.90
7694;DHT22;3889;48.162;11.510;2022-09-12T12:08:05;20.60;99.90
7694;DHT22;3889;48.162;11.510;2022-09-12T12:10:36;20.50;99.90
7694;DHT22;3889;48.162;11.510;2022-09-12T12:13:07;20.70;99.90
7694;DHT22;3889;48.162;11.510;2022-09-12T12:15:45;20.70;99.90
7694;DHT22;3889;48.162;11.510;2022-09-12T12:18:17;20.70;99.90
7694;DHT22;3889;48.162;11.510;2022-09-12T12:20:45;20.80;99.90
7694;DHT22;3889;48.162;11.510;2022-09-12T12:23:24;20.80;99.90
7694;DHT22;3889;48.162;11.510;2022-09-12T12:25:55;20.80;99.90
7694;DHT22;3889;48.162;11.510;2022-09-12T12:28:54;20.80;99.90
7694;DHT22;3889;48.162;11.510;2022-09-12T12:31:24;20.90;99.90
7694;DHT22;3889;48.162;11.510;2022-09-12T12:34:25;20.80;99.90
7694;DHT22;3889;48.162;11.510;2022-09-12T12:36:54;20.70;99.90
7694;DHT22;3889;48.162;11.510;2022-09-12T12:43:26;20.80;99.90
7694;DHT22;3889;48.162;11.510;2022-09-12T12:46:12;20.90;99.90
7694;DHT22;3889;48.162;11.510;2022-09-12T12:48:56;20.70;99.90
7694;DHT22;3889;48.162;11.510;2022-09-12T12:51:29;20.80;99.90
7694;DHT22;3889;48.162;11.510;2022-09-12T12:53:59;20.80;99.90
7694;DHT22;3889;48.162;11.510;2022-09-12T12:56:33;20.90;99.90
7694;DHT22;3889;48.162;11.510;2022-09-12T12:59:14;20.80;99.90
7694;DHT22;3889;48.162;11.510;2022-09-12T13:01:48;20.90;99.90
7694;DHT22;3889;48.162;11.510;2022-09-12T13:04:23;21.10;99.90
7694;DHT22;3889;48.162;11.510;2022-09-12T13:06:57;21.20;99.90
7694;DHT22;3889;48.162;11.510;2022-09-12T13:09:36;21.20;99.90
7694;DHT22;3889;48.162;11.510;2022-09-12T13:12:07;21.10;99.90
7694;DHT22;3889;48.162;11.510;2022-09-12T13:14:48;21.00;99.90
7694;DHT22;3889;48.162;11.510;2022-09-12T13:17:22;20.70;99.90
7694;DHT22;3889;48.162;11.510;2022-09-12T13:19:53;20.80;99.90
7694;DHT22;3889;48.162;11.510;2022-09-12T13:22:49;20.90;99.90
7694;DHT22;3889;48.162;11.510;2022-09-12T13:25:19;20.90;99.90
7694;DHT22;3889;48.162;11.510;2022-09-12T13:28:05;21.10;99.90
7694;DHT22;3889;48.162;11.510;2022-09-12T13:30:36;21.10;99.90
7694;DHT22;3889;48.162;11.510;2022-09-12T13:33:17;21.20;99.90
7694;DHT22;3889;48.162;11.510;2022-09-12T13:36:06;21.20;99.90
7694;DHT22;3889;48.162;11.510;2022-09-12T13:38:44;21.10;99.90
7694;DHT22;3889;48.162;11.510;2022-09-12T13:41:27;21.10;99.90
7694;DHT22;3889;48.162;11.510;2022-09-12T13:44:00;21.10;99.90
7694;DHT22;3889;48.162;11.510;2022-09-12T13:46:31;21.10;99.90
7694;DHT22;3889;48.162;11.510;2022-09-12T13:49:06;21.20;99.90
7694;DHT22;3889;48.162;11.510;2022-09-12T13:51:37;21.20;99.90
7694;DHT22;3889;48.162;11.510;2022-09-12T13:54:05;21.10;99.90
7694;DHT22;3889;48.162;11.510;2022-09-12T13:56:33;21.00;99.90
7694;DHT22;3889;48.162;11.510;2022-09-12T13:59:12;21.00;99.90
7694;DHT22;3889;48.162;11.510;2022-09-12T14:01:43;20.80;99.90
7694;DHT22;3889;48.162;11.510;2022-09-12T14:04:15;20.70;99.90
7694;DHT22;3889;48.162;11.510;2022-09-12T14:07:08;20.70;99.90
7694;DHT22;3889;48.162;11.510;2022-09-12T14:09:39;20.70;99.90
7694;DHT22;3889;48.162;11.510;2022-09-12T14:12:23;20.60;99.90
7694;DHT22;3889;48.162;11.510;2022-09-12T14:14:52;20.70;99.90
7694;DHT22;3889;48.162;11.510;2022-09-12T14:17:27;20.70;99.90
7694;DHT22;3889;48.162;11.510;2022-09-12T14:19:57;20.60;99.90
7694;DHT22;3889;48.162;11.510;2022-09-12T14:22:29;20.50;99.90
7694;DHT22;3889;48.162;11.510;2022-09-12T14:24:57;20.60;99.90
7694;DHT22;3889;48.162;11.510;2022-09-12T14:27:28;20.60;99.90
7694;DHT22;3889;48.162;11.510;2022-09-12T14:30:01;20.60;99.90
7694;DHT22;3889;48.162;11.510;2022-09-12T14:32:30;20.40;99.90
7694;DHT22;3889;48.162;11.510;2022-09-12T14:35:18;20.40;99.90
7694;DHT22;3889;48.162;11.510;2022-09-12T14:37:48;20.30;99.90
7694;DHT22;3889;48.162;11.510;2022-09-12T14:40:18;20.30;99.90
7694;DHT22;3889;48.162;11.510;2022-09-12T14:42:48;20.30;99.90
7694;DHT22;3889;48.162;11.510;2022-09-12T14:45:23;20.40;99.90
7694;DHT22;3889;48.162;11.510;2022-09-12T14:47:53;20.40;99.90
7694;DHT22;3889;48.162;11.510;2022-09-12T14:50:24;20.40;99.90
7694;DHT22;3889;48.162;11.510;2022-09-12T14:53:04;20.40;99.90
7694;DHT22;3889;48.162;11.510;2022-09-12T14:55:40;20.30;99.90
7694;DHT22;3889;48.162;11.510;2022-09-12T14:58:14;20.30;99.90
7694;DHT22;3889;48.162;11.510;2022-09-12T15:00:57;20.20;99.90
7694;DHT22;3889;48.162;11.510;2022-09-12T15:03:29;20.30;99.90
7694;DHT22;3889;48.162;11.510;2022-09-12T15:05:58;20.30;99.90
7694;DHT22;3889;48.162;11.510;2022-09-12T15:08:27;20.30;99.90
7694;DHT22;3889;48.162;11.510;2022-09-12T15:10:55;20.30;99.90
7694;DHT22;3889;48.162;11.510;2022-09-12T15:13:24;20.40;99.90
7694;DHT22;3889;48.162;11.510;2022-09-12T15:15:54;20.40;99.90
7694;DHT22;3889;48.162;11.510;2022-09-12T15:18:23;20.40;99.90
7694;DHT22;3889;48.162;11.510;2022-09-12T15:20:56;20.40;99.90
7694;DHT22;3889;48.162;11.510;2022-09-12T15:23:31;20.40;99.90
7694;DHT22;3889;48.162;11.510;2022-09-12T15:26:00;20.60;99.90
7694;DHT22;3889;48.162;11.510;2022-09-12T15:28:29;20.60;99.90
7694;DHT22;3889;48.162;11.510;2022-09-12T15:31:01;20.70;99.90
7694;DHT22;3889;48.162;11.510;2022-09-12T15:33:30;20.60;99.90
7694;DHT22;3889;48.162;11.510;2022-09-12T15:36:04;20.70;99.90
7694;DHT22;3889;48.162;11.510;2022-09-12T15:38:37;20.80;99.90
7694;DHT22;3889;48.162;11.510;2022-09-12T15:41:12;20.70;99.90
7694;DHT22;3889;48.162;11.510;2022-09-12T15:43:41;20.70;99.90
7694;DHT22;3889;48.162;11.510;2022-09-12T15:46:10;20.70;99.90
7694;DHT22;3889;48.162;11.510;2022-09-12T15:48:39;20.80;99.90
7694;DHT22;3889;48.162;11.510;2022-09-12T15:51:11;20.70;99.90
7694;DHT22;3889;48.162;11.510;2022-09-12T15:53:41;20.70;99.90
7694;DHT22;3889;48.162;11.510;2022-09-12T15:56:10;20.50;99.90
7694;DHT22;3889;48.162;11.510;2022-09-12T15:58:38;20.40;99.90
7694;DHT22;3889;48.162;11.510;2022-09-12T16:01:24;20.40;99.90
7694;DHT22;3889;48.162;11.510;2022-09-12T16:03:52;20.30;99.90
7694;DHT22;3889;48.162;11.510;2022-09-12T16:06:22;20.20;99.90
7694;DHT22;3889;48.162;11.510;2022-09-12T16:08:50;20.10;99.90
7694;DHT22;3889;48.162;11.510;2022-09-12T16:11:20;20.10;99.90
7694;DHT22;3889;48.162;11.510;2022-09-12T16:13:48;20.10;99.90
7694;DHT22;3889;48.162;11.510;2022-09-12T16:16:16;20.00;99.90
7694;DHT22;3889;48.162;11.510;2022-09-12T16:18:44;20.00;99.90
7694;DHT22;3889;48.162;11.510;2022-09-12T16:21:12;19.90;99.90
7694;DHT22;3889;48.162;11.510;2022-09-12T16:23:42;19.90;99.90
7694;DHT22;3889;48.162;11.510;2022-09-12T16:26:10;19.70;99.90
7694;DHT22;3889;48.162;11.510;2022-09-12T16:28:38;19.60;99.90
7694;DHT22;3889;48.162;11.510;2022-09-12T16:31:07;19.70;99.90
7694;DHT22;3889;48.162;11.510;2022-09-12T16:33:37;19.60;99.90
7694;DHT22;3889;48.162;11.510;2022-09-12T16:36:07;19.50;99.90
7694;DHT22;3889;48.162;11.510;2022-09-12T16:38:39;19.60;99.90
7694;DHT22;3889;48.162;11.510;2022-09-12T16:41:10;19.50;99.90
7694;DHT22;3889;48.162;11.510;2022-09-12T16:43:38;19.40;99.90
7694;DHT22;3889;48.162;11.510;2022-09-12T16:46:08;19.40;99.90
7694;DHT22;3889;48.162;11.510;2022-09-12T16:48:41;19.30;99.90
7694;DHT22;3889;48.162;11.510;2022-09-12T16:51:18;19.30;99.90